Time;durP1;ratioP1;P1;durP2;ratioP2;P2;SDS_P1;SDS_P2;PMS_P1;PMS_P2;Temp;Humidity;BMP_temperature;BMP_pressure;BME280_temperature;BME280_humidity;BME280_pressure;Samples;Min_cycle;Max_cycle;Signal;HPM_P1;HPM_P2
2022/08/27 00:00:36;;;;;;;13.32;4.57;;;;;;;22.07;68.20;97663.94;5072346;28;20176;-58
2022/08/27 00:03:01;;;;;;;20.83;4.40;;;;;;;22.33;67.76;97693.06;5071792;28;20655;-58
2022/08/27 00:05:27;;;;;;;17.80;4.18;;;;;;;22.29;68.36;97691.81;5072403;28;20180;-58
2022/08/27 00:07:52;;;;;;;11.00;4.50;;;;;;;22.22;67.57;97688.34;5072256;28;20164;-58
2022/08/27 00:10:23;;;;;;;9.10;3.65;;;;;;;22.25;67.35;97698.53;5072225;28;20258;-58
2022/08/27 00:12:49;;;;;;;10.95;3.72;;;;;;;22.16;67.27;97684.69;5072216;28;20157;-58
2022/08/27 00:15:16;;;;;;;9.30;3.67;;;;;;;22.21;67.50;97681.47;5072160;28;20564;-57
2022/08/27 00:17:44;;;;;;;11.35;4.45;;;;;;;22.18;66.38;97695.00;5072047;28;20199;-57
2022/08/27 00:20:11;;;;;;;14.32;4.28;;;;;;;22.17;68.55;97690.75;5072021;28;20215;-57
2022/08/27 00:22:36;;;;;;;21.65;4.43;;;;;;;22.08;68.66;97691.94;5072068;28;20180;-58
2022/08/27 00:25:03;;;;;;;11.95;3.75;;;;;;;22.05;69.11;97685.22;5072023;28;20172;-58
2022/08/27 00:27:28;;;;;;;11.77;4.22;;;;;;;22.16;68.85;97694.41;5072275;28;20665;-58
2022/08/27 00:29:54;;;;;;;11.00;4.00;;;;;;;21.89;68.88;97667.09;5072006;28;20180;-58
2022/08/27 00:32:19;;;;;;;11.77;4.13;;;;;;;22.05;68.90;97687.03;5071951;28;20187;-58
2022/08/27 00:34:45;;;;;;;15.00;4.10;;;;;;;22.03;69.30;97694.34;5072187;28;20202;-57
2022/08/27 00:37:10;;;;;;;10.63;3.80;;;;;;;22.09;68.95;97704.09;5071863;28;20183;-58
2022/08/27 00:39:35;;;;;;;10.60;4.20;;;;;;;22.05;69.33;97701.03;5071889;28;20173;-58
2022/08/27 00:42:03;;;;;;;11.23;4.10;;;;;;;22.00;68.30;97694.72;5072403;28;20172;-58
2022/08/27 00:44:29;;;;;;;15.23;3.97;;;;;;;22.02;68.29;97706.69;5072126;28;20561;-58
2022/08/27 00:47:03;;;;;;;8.02;4.00;;;;;;;22.02;67.46;97709.31;5072065;28;20176;-58
2022/08/27 00:49:44;;;;;;;11.02;4.05;;;;;;;21.94;67.95;97709.47;5072059;28;20167;-57
2022/08/27 00:52:26;;;;;;;16.77;4.72;;;;;;;21.83;68.63;97703.91;5071825;28;20215;-58
2022/08/27 00:54:57;;;;;;;7.53;3.72;;;;;;;21.80;69.66;97699.06;5072052;28;20222;-57
2022/08/27 00:57:23;;;;;;;11.23;3.97;;;;;;;21.83;69.36;97703.91;5071955;28;20196;-58
2022/08/27 00:59:49;;;;;;;8.75;3.72;;;;;;;21.83;68.98;97688.13;5071950;28;20180;-58
2022/08/27 01:02:17;;;;;;;8.77;3.90;;;;;;;21.79;69.23;97695.59;5071916;28;20195;-58
2022/08/27 01:04:50;;;;;;;7.72;3.67;;;;;;;21.78;68.84;97701.03;5071621;28;20596;-57
2022/08/27 01:07:17;;;;;;;9.57;3.85;;;;;;;21.66;70.43;97676.22;5071865;28;20172;-58
2022/08/27 01:09:46;;;;;;;11.88;3.90;;;;;;;21.63;70.75;97695.03;5071522;28;20194;-57
2022/08/27 01:12:11;;;;;;;13.45;4.10;;;;;;;21.71;70.59;97687.84;5071773;28;20615;-58
2022/08/27 01:14:38;;;;;;;10.00;3.35;;;;;;;21.66;70.37;97670.94;5072326;28;20177;-58
2022/08/27 01:17:07;;;;;;;7.80;3.63;;;;;;;21.72;70.62;97684.19;5075640;28;20203;-58
2022/08/27 01:19:44;;;;;;;16.42;4.28;;;;;;;21.76;70.10;97689.91;5075641;28;20172;-58
2022/08/27 01:22:43;;;;;;;10.85;4.25;;;;;;;21.64;71.50;97694.84;5075624;28;20171;-58
2022/08/27 01:25:12;;;;;;;13.15;5.15;;;;;;;21.54;72.04;97689.09;5075503;28;20205;-57
2022/08/27 01:27:39;;;;;;;16.90;4.10;;;;;;;21.55;71.44;97692.53;5075235;28;20164;-57
2022/08/27 01:30:06;;;;;;;6.53;4.25;;;;;;;21.49;71.80;97675.69;5075184;28;20175;-57
2022/08/27 01:32:34;;;;;;;18.92;4.18;;;;;;;21.48;70.93;97694.31;5075072;28;20646;-58
2022/08/27 01:35:00;;;;;;;13.65;3.70;;;;;;;21.43;71.07;97691.41;5075300;28;20895;-57
2022/08/27 01:37:27;;;;;;;14.23;3.90;;;;;;;21.49;70.99;97688.84;5074977;28;20192;-58
2022/08/27 01:39:54;;;;;;;13.32;3.90;;;;;;;21.48;71.52;97684.59;5074938;28;20206;-58
2022/08/27 01:42:25;;;;;;;10.75;3.97;;;;;;;21.44;71.40;97690.44;5074955;28;20199;-58
2022/08/27 01:44:54;;;;;;;9.52;4.13;;;;;;;21.43;71.36;97686.97;5075187;28;20594;-58
2022/08/27 01:47:22;;;;;;;13.43;4.20;;;;;;;21.41;71.71;97685.53;5075135;28;20259;-57
2022/08/27 01:49:48;;;;;;;10.07;4.10;;;;;;;21.44;70.72;97691.25;5075356;28;20168;-58
2022/08/27 01:52:16;;;;;;;10.60;3.92;;;;;;;21.37;71.67;97687.75;5074592;28;20211;-57
2022/08/27 01:54:42;;;;;;;10.95;4.30;;;;;;;21.32;70.98;97686.69;5075000;28;20172;-57
2022/08/27 01:57:08;;;;;;;12.23;3.70;;;;;;;21.35;71.56;97686.31;5074864;28;20645;-58
2022/08/27 01:59:34;;;;;;;7.80;3.55;;;;;;;21.41;70.39;97683.75;5074861;28;20176;-58
2022/08/27 02:02:01;;;;;;;11.25;4.20;;;;;;;21.45;70.85;97695.50;5075123;28;20646;-57
2022/08/27 02:04:27;;;;;;;10.73;3.95;;;;;;;21.47;70.93;97693.50;5074517;28;20183;-58
2022/08/27 02:06:53;;;;;;;13.15;4.00;;;;;;;21.41;71.25;97690.81;5074492;28;20260;-57
2022/08/27 02:09:18;;;;;;;10.93;4.10;;;;;;;21.36;71.43;97686.13;5074728;28;20247;-57
2022/08/27 02:11:44;;;;;;;8.98;4.05;;;;;;;21.42;71.86;97695.06;5074332;28;20645;-57
2022/08/27 02:14:09;;;;;;;17.23;4.43;;;;;;;21.32;72.24;97691.97;5074956;28;20183;-58
2022/08/27 02:16:35;;;;;;;10.43;3.83;;;;;;;21.20;72.71;97696.06;5074365;28;20223;-58
2022/08/27 02:19:02;;;;;;;12.63;4.57;;;;;;;21.24;72.23;97694.69;5074474;28;20197;-57
2022/08/27 02:21:27;;;;;;;7.35;4.10;;;;;;;21.18;71.91;97695.47;5074518;28;20586;-58
2022/08/27 02:23:54;;;;;;;13.60;4.40;;;;;;;21.16;71.85;97694.84;5074147;28;20168;-58
2022/08/27 02:26:21;;;;;;;13.35;3.67;;;;;;;21.10;72.25;97685.06;5073355;28;20175;-58
2022/08/27 02:28:46;;;;;;;11.38;3.78;;;;;;;21.08;72.67;97692.31;5074386;28;20220;-57
2022/08/27 02:31:11;;;;;;;10.18;4.50;;;;;;;21.03;72.86;97671.03;5074369;28;20173;-58
2022/08/27 02:33:37;;;;;;;12.00;4.78;;;;;;;21.06;73.25;97681.19;5074034;28;20243;-58
2022/08/27 02:36:03;;;;;;;9.02;4.20;;;;;;;20.93;73.24;97676.59;5073965;28;20264;-57
2022/08/27 02:38:28;;;;;;;11.38;4.28;;;;;;;21.04;72.90;97693.72;5073893;28;20188;-57
2022/08/27 02:40:54;;;;;;;9.55;3.63;;;;;;;21.06;71.74;97689.06;5074124;28;20641;-58
2022/08/27 02:43:20;;;;;;;10.35;3.83;;;;;;;21.03;71.81;97681.56;5073848;28;20263;-58
2022/08/27 02:45:45;;;;;;;9.98;3.63;;;;;;;21.05;71.79;97687.44;5073741;28;20168;-57
2022/08/27 02:48:10;;;;;;;14.07;3.72;;;;;;;21.13;70.44;97697.84;5074221;28;20298;-57
2022/08/27 02:50:36;;;;;;;9.10;4.40;;;;;;;21.18;71.65;97692.81;5073684;28;20556;-58
2022/08/27 02:53:04;;;;;;;13.38;4.03;;;;;;;21.25;71.54;97683.16;5073374;28;20224;-58
2022/08/27 02:55:30;;;;;;;8.38;3.92;;;;;;;21.17;71.68;97664.88;5073527;28;20184;-58
2022/08/27 02:57:56;;;;;;;16.63;4.40;;;;;;;21.29;71.54;97674.72;5073436;28;20192;-58
2022/08/27 03:00:23;;;;;;;9.95;4.40;;;;;;;21.33;71.41;97685.69;5073703;28;20179;-57
2022/08/27 03:02:49;;;;;;;11.00;3.88;;;;;;;21.36;71.83;97682.66;5073692;28;20173;-58
2022/08/27 03:05:16;;;;;;;17.70;4.68;;;;;;;21.31;70.97;97685.88;5073640;28;20172;-57
2022/08/27 03:07:41;;;;;;;12.60;3.80;;;;;;;21.33;71.68;97683.84;5073341;28;20223;-58
2022/08/27 03:10:09;;;;;;;8.32;4.35;;;;;;;21.29;70.44;97679.16;5073571;28;20685;-58
2022/08/27 03:12:35;;;;;;;8.90;4.18;;;;;;;21.28;70.33;97688.88;5073146;28;20180;-58
2022/08/27 03:15:06;;;;;;;9.60;4.00;;;;;;;21.12;72.10;97677.78;5073731;28;20180;-58
2022/08/27 03:20:16;;;;;;;6.88;3.63;;;;;;;21.17;71.31;97686.75;5073948;28;20160;-58
2022/08/27 03:22:42;;;;;;;19.20;5.30;;;;;;;21.22;71.64;97680.94;5073306;28;20206;-58
2022/08/27 03:25:08;;;;;;;10.43;4.18;;;;;;;21.16;72.15;97671.97;5073170;28;20246;-58
2022/08/27 03:27:34;;;;;;;12.00;4.10;;;;;;;21.15;72.49;97686.13;5073511;28;20176;-58
2022/08/27 03:30:02;;;;;;;12.40;4.47;;;;;;;21.03;72.79;97685.00;5072913;28;20283;-58
2022/08/27 03:32:27;;;;;;;13.15;4.22;;;;;;;21.09;73.00;97691.34;5072841;28;20173;-58
2022/08/27 03:34:56;;;;;;;8.18;3.90;;;;;;;20.98;72.62;97681.31;5072820;28;20172;-58
2022/08/27 03:37:22;;;;;;;8.77;3.92;;;;;;;20.98;72.91;97681.31;5072660;28;20230;-58
2022/08/27 03:39:47;;;;;;;8.05;3.88;;;;;;;21.02;72.84;97696.53;5072999;28;20604;-58
2022/08/27 03:42:13;;;;;;;12.82;4.30;;;;;;;20.99;72.14;97690.81;5072944;28;20247;-58
2022/08/27 03:44:38;;;;;;;13.43;4.47;;;;;;;21.03;71.60;97690.25;5072883;28;20226;-58
2022/08/27 03:47:04;;;;;;;11.23;4.00;;;;;;;21.02;72.62;97698.31;5072516;28;20252;-58
2022/08/27 03:49:30;;;;;;;10.10;4.28;;;;;;;21.03;71.80;97697.34;5072562;28;20173;-58
2022/08/27 03:51:55;;;;;;;11.50;4.70;;;;;;;21.03;71.57;97703.41;5072300;28;20630;-58
2022/08/27 03:54:21;;;;;;;11.70;4.07;;;;;;;21.05;71.14;97704.03;5072471;28;20172;-57
2022/08/27 03:56:47;;;;;;;18.92;4.50;;;;;;;20.90;72.07;97695.38;5072721;28;20176;-58
2022/08/27 03:59:14;;;;;;;7.68;4.50;;;;;;;20.97;72.14;97711.25;5072246;28;20292;-58
2022/08/27 04:01:39;;;;;;;11.93;4.05;;;;;;;20.88;73.39;97712.31;5072598;28;20183;-58
2022/08/27 04:04:05;;;;;;;8.15;4.32;;;;;;;20.79;73.72;97708.16;5072287;28;20557;-58
2022/08/27 04:06:33;;;;;;;9.68;3.67;;;;;;;20.77;74.51;97715.44;5072531;28;20183;-58
2022/08/27 04:08:59;;;;;;;14.38;4.40;;;;;;;20.78;73.44;97701.28;5072532;28;20173;-58
2022/08/27 04:11:25;;;;;;;12.88;3.92;;;;;;;20.84;73.46;97716.31;5072164;28;20657;-58
2022/08/27 04:13:50;;;;;;;11.55;4.65;;;;;;;20.92;72.92;97716.25;5072207;28;20251;-58
2022/08/27 04:16:16;;;;;;;14.88;3.65;;;;;;;20.89;73.29;97711.34;5072203;28;20176;-58
2022/08/27 04:18:41;;;;;;;17.55;3.83;;;;;;;20.67;73.50;97680.72;5072049;28;20203;-58
2022/08/27 04:21:10;;;;;;;12.73;4.07;;;;;;;20.79;74.20;97723.94;5072662;28;20168;-58
2022/08/27 04:23:36;;;;;;;10.40;4.10;;;;;;;20.71;74.33;97716.19;5072314;28;20556;-58
2022/08/27 04:26:10;;;;;;;12.85;4.28;;;;;;;20.79;74.30;97718.69;5072034;28;20168;-58
2022/08/27 04:28:36;;;;;;;13.85;4.20;;;;;;;20.84;73.38;97716.31;5072334;28;20511;-58
2022/08/27 04:31:02;;;;;;;11.18;4.72;;;;;;;20.89;72.75;97725.31;5072269;28;20226;-58
2022/08/27 04:33:30;;;;;;;14.85;3.92;;;;;;;21.02;72.82;97724.63;5071956;28;20176;-58
2022/08/27 04:35:57;;;;;;;11.20;4.45;;;;;;;21.03;72.34;97742.88;5072158;28;20538;-58
2022/08/27 04:38:22;;;;;;;9.98;4.25;;;;;;;21.10;72.38;97729.78;5071870;28;20199;-58
2022/08/27 04:43:32;;;;;;;8.30;4.20;;;;;;;21.29;72.07;97730.00;5072171;28;20163;-58
2022/08/27 04:45:57;;;;;;;10.35;4.88;;;;;;;21.47;73.34;97730.34;5072101;28;20569;-58
2022/08/27 04:48:22;;;;;;;9.93;4.57;;;;;;;21.49;73.13;97738.03;5072026;28;20168;-58
2022/08/27 04:50:48;;;;;;;13.60;4.68;;;;;;;21.51;73.61;97742.13;5074623;28;20562;-58
2022/08/27 04:53:15;;;;;;;21.75;5.43;;;;;;;21.62;74.04;97748.72;5075766;28;20605;-58
2022/08/27 04:55:42;;;;;;;16.15;6.35;;;;;;;21.79;75.07;97747.47;5075867;28;20172;-58
2022/08/27 04:58:09;;;;;;;13.00;5.03;;;;;;;21.80;74.96;97752.53;5075704;28;20223;-58
2022/08/27 05:00:40;;;;;;;12.25;5.43;;;;;;;21.75;74.92;97740.94;5075752;28;20180;-58
2022/08/27 05:03:06;;;;;;;17.25;6.80;;;;;;;22.03;74.78;97757.56;5075773;28;20177;-58
2022/08/27 05:05:31;;;;;;;20.30;7.60;;;;;;;22.05;75.05;97760.81;5075688;28;20234;-58
2022/08/27 05:07:57;;;;;;;23.00;7.57;;;;;;;22.05;75.41;97760.81;5075910;28;20168;-57
2022/08/27 05:10:22;;;;;;;25.23;7.65;;;;;;;22.10;75.36;97755.78;5075832;28;20262;-58
2022/08/27 05:12:48;;;;;;;15.93;7.47;;;;;;;22.19;75.03;97757.25;5075517;28;20226;-58
2022/08/27 05:15:14;;;;;;;21.63;7.95;;;;;;;22.29;74.40;97763.00;5075639;28;20531;-58
2022/08/27 05:17:39;;;;;;;17.75;7.40;;;;;;;22.32;74.26;97757.34;5075619;28;20220;-57
2022/08/27 05:20:06;;;;;;;24.77;7.88;;;;;;;22.45;73.12;97765.38;5075946;28;20203;-57
2022/08/27 05:22:31;;;;;;;19.35;8.23;;;;;;;22.48;73.02;97762.31;5075182;28;20716;-57
2022/08/27 05:24:56;;;;;;;15.13;7.20;;;;;;;22.58;73.19;97765.44;5075275;28;20268;-57
2022/08/27 05:27:22;;;;;;;20.02;7.03;;;;;;;22.64;73.22;97768.09;5075307;28;20176;-57
2022/08/27 05:29:47;;;;;;;31.30;7.35;;;;;;;22.82;71.36;97778.94;5075541;28;20229;-57
2022/08/27 05:32:13;;;;;;;21.25;6.72;;;;;;;22.82;70.67;97770.19;5075470;28;20560;-57
2022/08/27 05:34:38;;;;;;;16.80;6.35;;;;;;;22.76;71.07;97763.91;5075091;28;20656;-58
2022/08/27 05:37:03;;;;;;;22.13;7.00;;;;;;;22.77;71.80;97776.06;5075034;28;20175;-57
2022/08/27 05:39:29;;;;;;;22.60;7.50;;;;;;;22.81;71.93;97779.94;5074913;28;20815;-56
2022/08/27 05:41:57;;;;;;;15.43;6.75;;;;;;;22.42;71.78;97752.53;5075200;28;20169;-56
2022/08/27 05:44:22;;;;;;;21.95;6.82;;;;;;;22.67;71.05;97772.97;5075144;28;20173;-57
2022/08/27 05:46:48;;;;;;;22.23;7.68;;;;;;;22.71;71.98;97778.66;5074939;28;20655;-57
2022/08/27 05:49:13;;;;;;;21.98;7.00;;;;;;;22.83;71.87;97782.38;5074847;28;20176;-57
2022/08/27 05:51:40;;;;;;;25.70;7.78;;;;;;;22.87;71.78;97778.34;5074660;28;20657;-57
2022/08/27 05:54:13;;;;;;;21.48;7.35;;;;;;;23.00;71.30;97789.75;5075012;28;20196;-57
2022/08/27 05:56:40;;;;;;;22.30;6.78;;;;;;;23.18;70.61;97783.94;5075067;28;20618;-57
2022/08/27 06:01:53;;;;;;;17.17;6.10;;;;;;;23.51;69.88;97779.56;5074826;28;20167;-57
2022/08/27 06:04:20;;;;;;;24.27;6.68;;;;;;;23.60;68.94;97781.00;5074580;28;20187;-58
2022/08/27 06:06:47;;;;;;;19.27;7.53;;;;;;;23.44;68.82;97792.78;5074581;28;20565;-58
2022/08/27 06:09:17;;;;;;;16.45;5.70;;;;;;;23.60;68.88;97791.56;5074789;28;20169;-58
2022/08/27 06:11:42;;;;;;;23.30;6.93;;;;;;;23.79;68.01;97795.03;5074654;28;20173;-58
2022/08/27 06:14:09;;;;;;;14.88;6.35;;;;;;;23.85;67.27;97791.59;5074972;28;20179;-58
2022/08/27 06:16:35;;;;;;;23.25;6.55;;;;;;;23.92;67.27;97786.34;5074391;28;20199;-57
2022/08/27 06:19:00;;;;;;;19.88;5.50;;;;;;;24.04;66.20;97796.06;5074264;28;20196;-57
2022/08/27 06:21:26;;;;;;;23.38;6.20;;;;;;;24.08;65.79;97791.22;5074329;28;20169;-57
2022/08/27 06:23:54;;;;;;;17.65;5.68;;;;;;;24.15;65.45;97798.09;5074513;28;20180;-57
2022/08/27 06:26:22;;;;;;;15.63;5.20;;;;;;;24.34;63.73;97794.66;5074137;28;20189;-57
2022/08/27 06:28:48;;;;;;;22.98;6.15;;;;;;;24.45;64.18;97807.22;5074353;28;20614;-57
2022/08/27 06:31:17;;;;;;;11.70;4.88;;;;;;;24.45;63.37;97803.78;5074350;28;20210;-57
2022/08/27 06:33:45;;;;;;;10.70;4.35;;;;;;;24.43;63.21;97796.03;5073968;28;20211;-57
2022/08/27 06:36:14;;;;;;;13.45;4.40;;;;;;;24.48;62.83;97795.41;5074199;28;20227;-57
2022/08/27 06:38:41;;;;;;;8.80;3.75;;;;;;;24.63;61.43;97786.25;5073906;28;20231;-57
2022/08/27 06:41:09;;;;;;;9.50;4.15;;;;;;;24.82;61.34;97795.97;5074177;28;20180;-57
2022/08/27 06:43:37;;;;;;;10.63;4.03;;;;;;;24.95;60.46;97790.63;5074134;28;20183;-57
2022/08/27 06:46:05;;;;;;;12.15;3.97;;;;;;;25.04;60.41;97789.38;5073793;28;20259;-58
2022/08/27 06:48:30;;;;;;;10.88;4.18;;;;;;;25.17;60.65;97796.41;5073707;28;20177;-58
2022/08/27 06:50:56;;;;;;;10.10;4.10;;;;;;;25.18;60.39;97790.91;5074015;28;20225;-58
2022/08/27 06:53:21;;;;;;;9.00;3.70;;;;;;;25.24;60.78;97792.75;5073530;28;20716;-58
2022/08/27 06:55:48;;;;;;;6.78;3.97;;;;;;;25.31;59.85;97798.03;5073902;28;20218;-58
2022/08/27 06:58:15;;;;;;;11.75;4.10;;;;;;;25.31;59.64;97793.50;5073482;28;20688;-58
2022/08/27 07:00:42;;;;;;;12.65;4.32;;;;;;;25.42;59.10;97805.28;5073448;28;20259;-58
2022/08/27 07:03:09;;;;;;;6.22;3.90;;;;;;;25.47;58.12;97800.16;5073733;28;20249;-58
2022/08/27 07:05:37;;;;;;;11.57;3.50;;;;;;;25.58;57.50;97807.41;5073429;28;20213;-57
2022/08/27 07:08:04;;;;;;;8.70;4.10;;;;;;;25.63;57.15;97799.63;5073662;28;20559;-57
2022/08/27 07:10:30;;;;;;;12.25;4.45;;;;;;;25.63;57.93;97808.41;5073609;28;20191;-58
2022/08/27 07:12:56;;;;;;;10.32;4.65;;;;;;;25.76;57.01;97803.03;5072792;28;20176;-58
2022/08/27 07:15:22;;;;;;;34.83;8.80;;;;;;;25.81;57.09;97797.88;5073770;28;20179;-58
2022/08/27 07:17:47;;;;;;;12.88;4.25;;;;;;;25.88;56.75;97808.41;5073383;28;20200;-57
2022/08/27 07:20:15;;;;;;;16.13;4.32;;;;;;;25.94;57.14;97807.63;5073170;28;20168;-58
2022/08/27 07:22:42;;;;;;;10.52;4.10;;;;;;;26.02;56.57;97810.00;5073099;28;20176;-58
2022/08/27 07:25:11;;;;;;;15.65;4.00;;;;;;;25.97;56.41;97797.38;5073582;28;20177;-58
2022/08/27 07:27:37;;;;;;;12.80;4.25;;;;;;;26.07;56.39;97803.00;5073010;28;20164;-58
2022/08/27 07:30:04;;;;;;;7.65;3.83;;;;;;;26.13;56.36;97796.81;5072930;28;20177;-58
2022/08/27 07:32:30;;;;;;;12.75;3.88;;;;;;;26.25;55.67;97810.19;5072813;28;20638;-58
2022/08/27 07:34:55;;;;;;;15.50;3.97;;;;;;;26.35;55.43;97806.00;5072833;28;20255;-58
2022/08/27 07:37:21;;;;;;;11.93;3.70;;;;;;;26.41;55.67;97805.13;5072942;28;20173;-57
2022/08/27 07:39:47;;;;;;;11.40;4.30;;;;;;;26.61;54.46;97812.94;5072998;28;20646;-58
2022/08/27 07:44:56;;;;;;;10.10;3.53;;;;;;;26.64;54.48;97815.97;5073293;28;20242;-59
2022/08/27 07:47:21;;;;;;;15.60;4.40;;;;;;;26.70;54.40;97812.41;5072861;28;20192;-59
2022/08/27 07:49:47;;;;;;;10.07;4.10;;;;;;;26.80;54.10;97823.34;5072509;28;20175;-59
2022/08/27 07:52:12;;;;;;;7.97;3.03;;;;;;;26.84;53.87;97816.56;5072367;28;20265;-59
2022/08/27 07:54:37;;;;;;;10.20;3.70;;;;;;;26.99;53.78;97826.81;5072781;28;20688;-59
2022/08/27 07:57:03;;;;;;;14.43;3.78;;;;;;;27.06;53.72;97825.69;5072424;28;20161;-59
2022/08/27 07:59:29;;;;;;;16.55;3.70;;;;;;;27.11;53.66;97822.38;5072538;28;20196;-59
2022/08/27 08:01:55;;;;;;;7.18;3.88;;;;;;;27.23;52.61;97824.06;5072328;28;20195;-59
2022/08/27 08:04:21;;;;;;;11.07;3.47;;;;;;;27.29;53.08;97822.38;5072621;28;20175;-59
2022/08/27 08:06:48;;;;;;;11.73;3.80;;;;;;;27.42;52.80;97817.72;5072568;28;20184;-59
2022/08/27 08:09:14;;;;;;;9.40;4.25;;;;;;;27.51;52.39;97818.19;5072279;28;20169;-59
2022/08/27 08:11:40;;;;;;;13.30;3.83;;;;;;;27.68;52.15;97825.28;5072738;28;20257;-59
2022/08/27 08:14:05;;;;;;;12.27;3.83;;;;;;;27.78;51.98;97830.09;5072473;28;20172;-59
2022/08/27 08:16:31;;;;;;;7.78;4.18;;;;;;;27.86;51.21;97825.25;5072161;28;20195;-59
2022/08/27 08:18:58;;;;;;;16.77;3.90;;;;;;;27.96;50.66;97833.50;5072065;28;20275;-58
2022/08/27 08:21:25;;;;;;;11.45;3.92;;;;;;;28.00;51.30;97823.22;5072140;28;20178;-58
2022/08/27 08:23:50;;;;;;;18.80;4.70;;;;;;;28.16;51.33;97831.31;5071793;28;20664;-58
2022/08/27 08:26:16;;;;;;;17.83;4.63;;;;;;;28.24;49.39;97825.66;5071683;28;20268;-58
2022/08/27 08:28:42;;;;;;;14.95;4.30;;;;;;;28.41;49.29;97829.31;5072030;28;20165;-58
2022/08/27 08:31:07;;;;;;;10.40;3.45;;;;;;;28.48;49.31;97835.31;5072284;28;20168;-58
2022/08/27 08:33:33;;;;;;;15.63;3.53;;;;;;;28.59;48.93;97831.03;5071973;28;20612;-58
2022/08/27 08:36:14;;;;;;;14.90;5.88;;;;;;;28.64;48.88;97837.28;5071879;28;20176;-58
2022/08/27 08:38:41;;;;;;;10.23;3.75;;;;;;;28.68;46.06;97835.75;5072052;28;20200;-58
2022/08/27 08:41:39;;;;;;;11.38;3.53;;;;;;;28.67;45.58;97836.81;5072183;28;20172;-59
2022/08/27 08:44:30;;;;;;;14.45;3.92;;;;;;;28.78;45.81;97830.66;5071525;28;20184;-58
2022/08/27 08:47:06;;;;;;;10.27;3.83;;;;;;;28.91;45.77;97840.25;5062716;28;20731;-59
2022/08/27 08:49:52;;;;;;;14.27;3.67;;;;;;;28.95;45.79;97839.56;5071861;28;20160;-59
2022/08/27 08:52:36;;;;;;;13.38;4.30;;;;;;;29.08;45.96;97833.16;5030596;28;20220;-59
2022/08/27 08:55:01;;;;;;;8.85;3.90;;;;;;;29.18;44.61;97838.69;5071753;28;20656;-59
2022/08/27 08:57:32;;;;;;;12.13;3.80;;;;;;;29.18;44.79;97822.72;5071703;28;20173;-59
2022/08/27 09:00:06;;;;;;;15.88;4.03;;;;;;;29.31;44.33;97828.59;5071964;28;20176;-58
2022/08/27 09:02:32;;;;;;;16.55;4.38;;;;;;;29.40;44.34;97824.50;5071995;28;20656;-59
2022/08/27 09:05:01;;;;;;;14.23;3.72;;;;;;;29.45;44.30;97819.25;5071658;28;20172;-58
2022/08/27 09:07:53;;;;;;;14.93;4.38;;;;;;;29.45;43.52;97823.78;5071663;28;20172;-58
2022/08/27 09:10:52;;;;;;;9.30;4.20;;;;;;;29.54;44.25;97825.03;5073027;28;20519;-59
2022/08/27 09:13:29;;;;;;;14.05;4.30;;;;;;;29.61;43.38;97829.19;5071742;28;20243;-58
2022/08/27 09:15:58;;;;;;;16.85;4.28;;;;;;;29.74;42.63;97822.75;5071539;28;20172;-58
2022/08/27 09:18:24;;;;;;;11.50;4.13;;;;;;;29.77;42.48;97823.06;5071472;28;20193;-59
2022/08/27 09:21:02;;;;;;;7.75;3.90;;;;;;;29.87;41.98;97827.78;5072107;28;20191;-59
2022/08/27 09:24:11;;;;;;;12.15;3.92;;;;;;;29.83;40.95;97823.97;5071890;28;20165;-58
2022/08/27 09:26:39;;;;;;;12.07;4.55;;;;;;;29.87;41.94;97823.25;5058361;28;20581;-58
2022/08/27 09:29:14;;;;;;;10.98;3.97;;;;;;;29.95;43.10;97824.69;5071486;28;20165;-59
2022/08/27 09:31:45;;;;;;;15.75;4.53;;;;;;;30.06;43.40;97821.97;5071723;28;20230;-58
2022/08/27 09:34:11;;;;;;;9.65;3.95;;;;;;;30.11;43.14;97816.75;5071479;28;20235;-57
2022/08/27 09:37:14;;;;;;;13.48;3.63;;;;;;;30.18;42.81;97825.41;5073535;28;20176;-57
2022/08/27 09:39:46;;;;;;;15.23;4.60;;;;;;;30.24;41.79;97828.94;5075326;28;20207;-57
2022/08/27 09:42:45;;;;;;;11.07;4.38;;;;;;;30.07;40.95;97818.25;5075256;28;20203;-57
2022/08/27 09:45:17;;;;;;;17.02;4.50;;;;;;;30.21;41.31;97829.44;5075101;28;20180;-58
2022/08/27 09:47:53;;;;;;;13.75;4.15;;;;;;;30.29;41.66;97821.84;5074867;28;20268;-58
2022/08/27 09:50:23;;;;;;;10.60;3.85;;;;;;;30.41;41.27;97822.56;5075107;28;20176;-58
2022/08/27 09:52:58;;;;;;;14.57;3.70;;;;;;;30.57;37.87;97834.25;5074763;28;20266;-58
2022/08/27 09:55:34;;;;;;;11.35;3.97;;;;;;;30.65;37.55;97829.34;5075015;28;20176;-58
2022/08/27 09:58:02;;;;;;;9.88;3.65;;;;;;;30.66;38.78;97824.81;5075198;28;20184;-58
2022/08/27 10:00:37;;;;;;;15.38;4.85;;;;;;;30.72;38.08;97829.97;5074970;28;20173;-58
2022/08/27 10:03:04;;;;;;;13.95;4.20;;;;;;;30.69;39.14;97819.78;5074959;28;20160;-58
2022/08/27 10:05:49;;;;;;;13.32;3.92;;;;;;;30.82;38.15;97829.28;5074556;28;20668;-58
2022/08/27 10:08:40;;;;;;;13.18;3.97;;;;;;;30.90;38.99;97826.22;5075344;28;20232;-58
2022/08/27 10:11:10;;;;;;;12.10;4.18;;;;;;;30.95;38.06;97824.41;5074805;28;20172;-58
2022/08/27 10:13:56;;;;;;;16.27;4.38;;;;;;;31.08;38.54;97824.03;5074424;28;20176;-58
2022/08/27 10:16:53;;;;;;;14.65;3.78;;;;;;;31.24;37.23;97831.19;5074743;28;20232;-58
2022/08/27 10:19:37;;;;;;;12.68;4.68;;;;;;;31.35;35.06;97830.25;5073310;28;20724;-58
2022/08/27 10:22:11;;;;;;;20.08;5.18;;;;;;;31.41;36.04;97837.28;5074600;28;20165;-58
2022/08/27 10:25:01;;;;;;;15.80;5.20;;;;;;;31.63;36.45;97840.75;5074640;28;20693;-58
2022/08/27 10:27:50;;;;;;;15.60;4.05;;;;;;;31.71;37.21;97836.81;5074474;28;20180;-58
2022/08/27 10:30:39;;;;;;;17.30;4.50;;;;;;;31.85;35.10;97838.84;5074424;28;20560;-58
2022/08/27 10:33:29;;;;;;;11.63;4.47;;;;;;;31.89;35.73;97839.94;5074058;28;20646;-58
2022/08/27 10:36:05;;;;;;;10.75;4.07;;;;;;;31.94;35.58;97831.16;5074580;28;20693;-58
2022/08/27 10:38:40;;;;;;;21.17;6.60;;;;;;;31.89;34.75;97828.44;5073956;28;20224;-58
2022/08/27 10:41:24;;;;;;;15.10;4.32;;;;;;;32.05;35.08;97827.53;5073931;28;20230;-58
2022/08/27 10:44:04;;;;;;;14.60;4.22;;;;;;;32.26;34.96;97835.50;5074154;28;20559;-58
2022/08/27 10:46:29;;;;;;;15.98;4.90;;;;;;;32.49;34.51;97840.47;5074093;28;20163;-58
2022/08/27 10:49:19;;;;;;;16.40;4.50;;;;;;;32.53;32.96;97833.53;5072897;28;20597;-59
2022/08/27 10:52:26;;;;;;;16.00;4.30;;;;;;;32.68;33.85;97833.63;5073766;28;20941;-58
2022/08/27 10:55:10;;;;;;;14.02;4.63;;;;;;;32.91;33.23;97841.28;4992296;28;20542;-58
2022/08/27 10:58:09;;;;;;;21.17;4.13;;;;;;;33.07;33.22;97843.00;5066766;28;20184;-58
2022/08/27 11:01:01;;;;;;;11.75;4.25;;;;;;;33.20;31.78;97837.13;5073426;28;20208;-58
2022/08/27 11:03:48;;;;;;;12.70;3.80;;;;;;;32.97;30.40;97842.09;5073788;28;20171;-58
2022/08/27 11:06:22;;;;;;;19.55;4.35;;;;;;;33.02;30.80;97839.47;5073762;28;20175;-59
2022/08/27 11:09:14;;;;;;;21.33;4.05;;;;;;;33.15;30.59;97834.44;5073422;28;20160;-58
2022/08/27 11:11:44;;;;;;;13.15;3.58;;;;;;;33.32;30.16;97823.50;5073412;28;20148;-59
2022/08/27 11:14:27;;;;;;;21.27;4.18;;;;;;;33.52;30.54;97823.59;5073288;28;20161;-59
2022/08/27 11:17:00;;;;;;;10.18;3.50;;;;;;;33.61;30.58;97817.44;5073806;28;20164;-59
2022/08/27 11:19:46;;;;;;;14.43;3.47;;;;;;;33.78;30.21;97834.13;5073385;28;20200;-59
2022/08/27 11:22:21;;;;;;;14.10;3.40;;;;;;;33.73;28.40;97839.47;5073394;28;20570;-59
2022/08/27 11:25:05;;;;;;;13.20;3.40;;;;;;;33.78;28.69;97826.06;5073586;28;20200;-58
2022/08/27 11:27:32;;;;;;;10.50;3.78;;;;;;;33.88;28.91;97833.34;5073038;28;20210;-58
2022/08/27 11:30:04;;;;;;;14.07;3.30;;;;;;;33.83;29.75;97823.41;5073518;28;20183;-58
2022/08/27 11:32:41;;;;;;;10.98;3.65;;;;;;;33.79;29.50;97825.00;5072930;28;20160;-58
2022/08/27 11:35:42;;;;;;;9.20;3.67;;;;;;;33.90;29.86;97818.56;5073132;28;20168;-59
2022/08/27 11:38:44;;;;;;;13.75;4.22;;;;;;;33.98;29.54;97814.56;5029938;28;20258;-59
2022/08/27 11:41:37;;;;;;;17.17;4.38;;;;;;;34.00;28.60;97820.47;5072693;28;20255;-59
2022/08/27 11:44:03;;;;;;;16.33;3.45;;;;;;;34.13;29.54;97819.91;5072697;28;20179;-59
2022/08/27 11:46:45;;;;;;;16.90;3.22;;;;;;;34.01;29.00;97817.50;5072947;28;20173;-57
2022/08/27 11:49:22;;;;;;;11.23;3.15;;;;;;;34.17;29.48;97811.06;5072876;28;20153;-58
2022/08/27 11:52:00;;;;;;;19.73;3.70;;;;;;;34.34;28.71;97811.59;5072374;28;20689;-58